Time;durP1;ratioP1;P1;durP2;ratioP2;P2;SDS_P1;SDS_P2;PMS_P1;PMS_P2;Temp;Humidity;BMP_temperature;BMP_pressure;BME280_temperature;BME280_humidity;BME280_pressure;Samples;Min_cycle;Max_cycle;Signal;HPM_P1;HPM_P2
2021/09/02 00:01:46;;;;;;;10.67;9.63;;;18.00;99.90;;;;;;5072433;28;20466;-68
2021/09/02 00:04:13;;;;;;;10.27;9.33;;;18.00;99.90;;;;;;5072209;28;20477;-68
2021/09/02 00:06:40;;;;;;;11.00;10.00;;;18.00;99.90;;;;;;5072230;28;21144;-68
2021/09/02 00:09:08;;;;;;;9.23;8.43;;;18.00;99.90;;;;;;5072993;28;20470;-68
2021/09/02 00:11:35;;;;;;;10.70;9.80;;;18.00;99.90;;;;;;5072291;28;20476;-69
2021/09/02 00:14:02;;;;;;;10.23;9.30;;;18.00;99.90;;;;;;5072754;28;20470;-68
2021/09/02 00:16:28;;;;;;;9.00;8.20;;;18.00;99.90;;;;;;5072303;28;20824;-68
2021/09/02 00:18:55;;;;;;;10.37;9.50;;;18.00;99.90;;;;;;5072585;28;20484;-68
2021/09/02 00:21:22;;;;;;;10.47;9.57;;;18.00;99.90;;;;;;5072518;28;20477;-69
2021/09/02 00:23:49;;;;;;;10.23;9.33;;;18.00;99.90;;;;;;5072066;28;20454;-69
2021/09/02 00:26:17;;;;;;;9.47;8.60;;;18.00;99.90;;;;;;5072610;28;20466;-69
2021/09/02 00:28:44;;;;;;;10.13;9.23;;;18.10;99.90;;;;;;5071937;28;20474;-69
2021/09/02 00:31:11;;;;;;;9.57;8.77;;;18.00;99.90;;;;;;5072734;28;20964;-69
2021/09/02 00:33:38;;;;;;;9.63;8.93;;;18.10;99.90;;;;;;5074094;28;20508;-69
2021/09/02 00:36:05;;;;;;;10.37;9.47;;;18.10;99.90;;;;;;5072476;28;20477;-70
2021/09/02 00:38:32;;;;;;;16.00;12.87;;;18.00;99.90;;;;;;5071826;28;21012;-68
2021/09/02 00:40:59;;;;;;;14.07;12.60;;;18.10;99.90;;;;;;5068552;28;20474;-67
2021/09/02 00:43:31;;;;;;;11.33;10.17;;;18.10;99.90;;;;;;5072303;28;20484;-69
2021/09/02 00:46:01;;;;;;;11.10;10.03;;;18.10;99.90;;;;;;5063106;28;21226;-68
2021/09/02 00:48:27;;;;;;;8.97;8.07;;;18.10;99.90;;;;;;5052242;28;20481;-68
2021/09/02 00:50:54;;;;;;;9.00;8.20;;;18.10;99.90;;;;;;5051525;28;20469;-68
2021/09/02 00:53:21;;;;;;;8.90;8.00;;;18.00;99.90;;;;;;5052076;28;20467;-68
2021/09/02 00:55:49;;;;;;;8.77;8.03;;;18.00;99.90;;;;;;5051845;28;20546;-68
2021/09/02 00:58:19;;;;;;;8.80;8.00;;;18.10;99.90;;;;;;5038606;28;20471;-68
2021/09/02 01:00:47;;;;;;;9.13;8.43;;;18.10;99.90;;;;;;5051514;28;20478;-68
2021/09/02 01:03:17;;;;;;;8.03;7.23;;;18.00;99.90;;;;;;5052124;28;20550;-69
2021/09/02 01:05:44;;;;;;;9.43;8.50;;;18.00;99.90;;;;;;5051394;28;20468;-69
2021/09/02 01:08:11;;;;;;;9.63;8.70;;;18.00;99.90;;;;;;5051937;28;20471;-68
2021/09/02 01:10:38;;;;;;;9.87;8.00;;;18.00;99.90;;;;;;5051449;28;20471;-69
2021/09/02 01:13:04;;;;;;;8.87;8.07;;;17.90;99.90;;;;;;5052286;28;20514;-69
2021/09/02 01:15:31;;;;;;;8.40;7.70;;;17.90;99.90;;;;;;5055059;28;20477;-69
2021/09/02 01:18:01;;;;;;;9.57;8.67;;;17.90;99.90;;;;;;5055528;28;20462;-68
2021/09/02 01:20:31;;;;;;;8.77;7.97;;;17.90;99.90;;;;;;5055819;28;20474;-68
2021/09/02 01:23:01;;;;;;;8.47;7.77;;;17.90;99.90;;;;;;5055582;28;20473;-68
2021/09/02 01:25:32;;;;;;;8.20;7.50;;;17.90;99.90;;;;;;5055726;28;20467;-68
2021/09/02 01:28:00;;;;;;;9.13;8.33;;;17.90;99.90;;;;;;5055167;28;20473;-68
2021/09/02 01:30:28;;;;;;;9.20;8.40;;;17.90;99.90;;;;;;5055754;28;20991;-68
2021/09/02 01:32:55;;;;;;;9.00;8.10;;;17.90;99.90;;;;;;5054091;28;20473;-69
2021/09/02 01:35:24;;;;;;;10.90;9.80;;;17.90;99.90;;;;;;5054004;28;20494;-68
2021/09/02 01:37:53;;;;;;;7.80;7.00;;;17.90;99.90;;;;;;5055334;28;20467;-67
2021/09/02 01:40:22;;;;;;;7.97;7.37;;;17.80;99.90;;;;;;5055195;28;20481;-68
2021/09/02 01:42:51;;;;;;;8.70;8.00;;;17.80;99.90;;;;;;5055045;28;20471;-68
2021/09/02 01:45:20;;;;;;;8.77;7.97;;;17.80;99.90;;;;;;5045965;28;20478;-68
2021/09/02 01:47:46;;;;;;;8.80;8.10;;;17.80;99.90;;;;;;5074866;28;20470;-67
2021/09/02 01:50:17;;;;;;;10.90;9.90;;;17.80;99.90;;;;;;5075389;28;20481;-68
2021/09/02 01:52:46;;;;;;;10.13;9.20;;;17.80;99.90;;;;;;5075042;28;20466;-68
2021/09/02 01:55:13;;;;;;;9.03;8.20;;;17.80;99.90;;;;;;5075135;28;20811;-68
2021/09/02 01:57:41;;;;;;;12.70;9.90;;;17.80;99.90;;;;;;5074774;28;20475;-68
2021/09/02 02:00:12;;;;;;;11.53;10.43;;;17.80;99.90;;;;;;5061775;28;20474;-68
2021/09/02 02:02:40;;;;;;;12.23;10.90;;;17.80;99.90;;;;;;5074538;28;20470;-68
2021/09/02 02:05:08;;;;;;;9.97;9.13;;;17.80;99.90;;;;;;5071835;28;20901;-68
2021/09/02 02:07:35;;;;;;;10.40;9.43;;;17.70;99.90;;;;;;5075122;28;20462;-68
2021/09/02 02:10:02;;;;;;;10.50;9.47;;;17.70;99.90;;;;;;5074718;28;20892;-68
2021/09/02 02:12:29;;;;;;;14.37;9.17;;;17.70;99.90;;;;;;5074614;28;20474;-68
2021/09/02 02:14:56;;;;;;;10.13;9.13;;;17.70;99.90;;;;;;5074658;28;20466;-68
2021/09/02 02:17:24;;;;;;;9.13;8.33;;;17.70;99.90;;;;;;5074731;28;20466;-68
2021/09/02 02:19:51;;;;;;;9.10;8.30;;;17.70;99.90;;;;;;5074449;28;20474;-68
2021/09/02 02:22:18;;;;;;;9.60;8.80;;;17.70;99.90;;;;;;5074765;28;20963;-68
2021/09/02 02:24:44;;;;;;;10.10;9.30;;;17.60;99.90;;;;;;5074383;28;20476;-68
2021/09/02 02:27:11;;;;;;;11.37;9.90;;;17.60;99.90;;;;;;5073905;28;20451;-68
2021/09/02 02:29:38;;;;;;;10.13;9.17;;;17.60;99.90;;;;;;5074840;28;20480;-68
2021/09/02 02:32:06;;;;;;;11.20;10.20;;;17.60;99.90;;;;;;5074280;28;21229;-69
2021/09/02 02:34:34;;;;;;;10.23;9.23;;;17.60;99.90;;;;;;5074456;28;20807;-68
2021/09/02 02:37:01;;;;;;;10.63;9.60;;;17.60;99.90;;;;;;5074201;28;20920;-68
2021/09/02 02:39:28;;;;;;;10.83;9.80;;;17.50;99.90;;;;;;5072637;28;20482;-68
2021/09/02 02:41:55;;;;;;;8.67;7.97;;;17.50;99.90;;;;;;5074298;28;20472;-68
2021/09/02 02:44:21;;;;;;;9.40;8.60;;;17.50;99.90;;;;;;5074492;28;20466;-68
2021/09/02 02:46:48;;;;;;;10.10;9.27;;;17.50;99.90;;;;;;5073779;28;20608;-69
2021/09/02 02:49:15;;;;;;;9.70;8.80;;;17.40;99.90;;;;;;5074669;28;20517;-68
2021/09/02 02:51:43;;;;;;;10.60;9.53;;;17.40;99.90;;;;;;5073723;28;20803;-68
2021/09/02 02:54:10;;;;;;;8.83;8.00;;;17.40;99.90;;;;;;5074058;28;20472;-68
2021/09/02 02:56:37;;;;;;;9.30;8.40;;;17.40;99.90;;;;;;5074043;28;20480;-68
2021/09/02 02:59:04;;;;;;;9.43;8.53;;;17.40;99.90;;;;;;5073609;28;20996;-68
2021/09/02 03:01:31;;;;;;;9.83;8.93;;;17.40;99.90;;;;;;5073855;28;20480;-68
2021/09/02 03:03:58;;;;;;;9.60;8.70;;;17.40;99.90;;;;;;5073476;28;20470;-68
2021/09/02 03:06:24;;;;;;;8.63;7.93;;;17.40;99.90;;;;;;5073751;28;20549;-68
2021/09/02 03:08:53;;;;;;;9.67;8.87;;;17.30;99.90;;;;;;5073305;28;20967;-68
2021/09/02 03:11:19;;;;;;;9.17;8.27;;;17.30;99.90;;;;;;5073967;28;20472;-68
2021/09/02 03:13:46;;;;;;;8.87;8.07;;;17.30;99.90;;;;;;5073292;28;20556;-68
2021/09/02 03:16:13;;;;;;;9.20;8.27;;;17.30;99.90;;;;;;5073777;28;20465;-68
2021/09/02 03:18:40;;;;;;;9.43;8.33;;;17.30;99.90;;;;;;5073609;28;20467;-68
2021/09/02 03:21:07;;;;;;;8.47;7.77;;;17.30;99.90;;;;;;5072975;28;20477;-68
2021/09/02 03:23:38;;;;;;;9.93;9.13;;;17.30;99.90;;;;;;5073890;28;20470;-68
2021/09/02 03:26:06;;;;;;;9.23;8.43;;;17.30;99.90;;;;;;5072986;28;20928;-68
2021/09/02 03:28:33;;;;;;;9.47;8.60;;;17.30;99.90;;;;;;5073312;28;20480;-68
2021/09/02 03:30:59;;;;;;;8.70;7.90;;;17.30;99.90;;;;;;5072991;28;20489;-68
2021/09/02 03:33:26;;;;;;;8.33;7.63;;;17.20;99.90;;;;;;5073483;28;20469;-68
2021/09/02 03:35:53;;;;;;;9.97;9.00;;;17.30;99.90;;;;;;5073031;28;20470;-68
2021/09/02 03:38:20;;;;;;;9.60;8.53;;;17.30;99.90;;;;;;5072413;28;20470;-68
2021/09/02 03:40:47;;;;;;;29.30;23.20;;;17.30;99.90;;;;;;5053072;28;20474;-68
2021/09/02 03:43:19;;;;;;;18.00;16.20;;;17.30;99.90;;;;;;5053216;28;20480;-68
2021/09/02 03:45:46;;;;;;;11.60;10.50;;;17.30;99.90;;;;;;5052886;28;20472;-68
2021/09/02 03:48:13;;;;;;;10.20;9.27;;;17.30;99.90;;;;;;5053607;28;20467;-67
2021/09/02 03:50:40;;;;;;;10.00;9.10;;;17.30;99.90;;;;;;5065133;28;20466;-68
2021/09/02 03:53:07;;;;;;;9.60;8.70;;;17.30;99.90;;;;;;5072930;28;20482;-67
2021/09/02 03:55:34;;;;;;;9.10;8.30;;;17.30;99.90;;;;;;5073307;28;20470;-68
2021/09/02 03:58:01;;;;;;;8.80;8.00;;;17.20;99.90;;;;;;5072446;28;20477;-68
2021/09/02 04:00:29;;;;;;;9.80;8.80;;;17.20;99.90;;;;;;5073170;28;20470;-69
2021/09/02 04:02:56;;;;;;;8.37;7.70;;;17.20;99.90;;;;;;5072497;28;20481;-68
2021/09/02 04:05:22;;;;;;;8.70;7.90;;;17.20;99.90;;;;;;5072990;28;20468;-68
2021/09/02 04:07:49;;;;;;;8.90;8.00;;;17.20;99.90;;;;;;5072410;28;20541;-68
2021/09/02 04:10:16;;;;;;;9.50;8.53;;;17.20;99.90;;;;;;5072723;28;20467;-68
2021/09/02 04:12:43;;;;;;;9.00;8.20;;;17.20;99.90;;;;;;5072782;28;20462;-68
2021/09/02 04:15:10;;;;;;;9.87;8.90;;;17.20;99.90;;;;;;5072379;28;20473;-68
2021/09/02 04:17:38;;;;;;;10.93;9.83;;;17.20;99.90;;;;;;5072817;28;21086;-68
2021/09/02 04:20:06;;;;;;;10.40;9.40;;;17.20;99.90;;;;;;5072312;28;20481;-68
2021/09/02 04:22:33;;;;;;;10.03;9.07;;;17.10;99.90;;;;;;5072823;28;20815;-68
2021/09/02 04:25:00;;;;;;;9.57;8.67;;;17.10;99.90;;;;;;5072422;28;20484;-68
2021/09/02 04:27:27;;;;;;;9.70;8.70;;;17.10;99.90;;;;;;5072879;28;20457;-68
2021/09/02 04:29:53;;;;;;;10.17;9.27;;;17.10;99.90;;;;;;5072222;28;20466;-68
2021/09/02 04:32:20;;;;;;;8.50;7.70;;;17.00;99.90;;;;;;5072627;28;20966;-68
2021/09/02 04:34:48;;;;;;;9.07;8.27;;;17.00;99.90;;;;;;5072590;28;20508;-69
2021/09/02 04:37:15;;;;;;;8.30;7.60;;;17.00;99.90;;;;;;5072271;28;20450;-69
2021/09/02 04:39:42;;;;;;;10.20;9.27;;;17.00;99.90;;;;;;5072255;28;20469;-67
2021/09/02 04:42:10;;;;;;;10.90;9.33;;;17.00;99.90;;;;;;5072250;28;20488;-67
2021/09/02 04:44:37;;;;;;;10.73;9.77;;;17.00;99.90;;;;;;5072590;28;20963;-67
2021/09/02 04:47:04;;;;;;;10.30;9.40;;;17.00;99.90;;;;;;5072011;28;20807;-67
2021/09/02 04:49:31;;;;;;;9.60;8.70;;;16.90;99.90;;;;;;5072266;28;20468;-67
2021/09/02 04:51:59;;;;;;;9.63;8.73;;;16.90;99.90;;;;;;5071955;28;20470;-67
2021/09/02 04:54:26;;;;;;;10.10;9.20;;;16.90;99.90;;;;;;5072448;28;20462;-67
2021/09/02 04:56:52;;;;;;;8.97;8.10;;;16.90;99.90;;;;;;5072068;28;20470;-69
2021/09/02 04:59:19;;;;;;;10.10;7.80;;;16.90;99.90;;;;;;5072355;28;20466;-68
2021/09/02 05:01:46;;;;;;;9.33;8.53;;;16.90;99.90;;;;;;5072326;28;20986;-68
2021/09/02 05:04:13;;;;;;;10.90;8.77;;;16.90;99.90;;;;;;5072056;28;20469;-68
2021/09/02 05:06:40;;;;;;;8.80;8.00;;;16.90;99.90;;;;;;5072051;28;20467;-68
2021/09/02 05:09:08;;;;;;;9.00;8.00;;;16.90;99.90;;;;;;5071832;28;20952;-68
2021/09/02 05:11:35;;;;;;;10.10;9.23;;;16.90;99.90;;;;;;5072316;28;20467;-68
2021/09/02 05:14:02;;;;;;;9.77;7.97;;;16.90;99.90;;;;;;5071685;28;20466;-68
2021/09/02 05:16:28;;;;;;;10.80;9.53;;;16.90;99.90;;;;;;5072113;28;20462;-69
2021/09/02 05:18:55;;;;;;;9.37;8.57;;;16.90;99.90;;;;;;5071448;28;20466;-68
2021/09/02 05:21:22;;;;;;;13.23;10.20;;;16.90;99.90;;;;;;5071721;28;20466;-68
2021/09/02 05:23:49;;;;;;;11.33;10.13;;;16.90;99.90;;;;;;5071729;28;20466;-68
2021/09/02 05:26:17;;;;;;;11.90;9.27;;;16.90;99.90;;;;;;5070740;28;20981;-68
2021/09/02 05:28:44;;;;;;;10.50;9.50;;;16.90;99.90;;;;;;5072089;28;20474;-68
2021/09/02 05:31:11;;;;;;;14.87;11.73;;;16.90;99.90;;;;;;5091625;28;20990;-68
2021/09/02 05:33:38;;;;;;;12.50;11.37;;;16.90;99.90;;;;;;5084429;28;20458;-68
2021/09/02 05:36:05;;;;;;;12.77;11.67;;;16.90;99.90;;;;;;5071554;28;20464;-68
2021/09/02 05:38:32;;;;;;;17.30;15.40;;;16.90;99.90;;;;;;5071961;28;20489;-68
2021/09/02 05:40:59;;;;;;;15.73;14.23;;;16.90;99.90;;;;;;5071452;28;20462;-68
2021/09/02 05:43:27;;;;;;;14.43;12.97;;;16.90;99.90;;;;;;5071985;28;20538;-68
2021/09/02 05:45:55;;;;;;;9.60;8.80;;;16.90;99.90;;;;;;5071909;28;20802;-68
2021/09/02 05:48:22;;;;;;;10.17;9.27;;;17.00;99.90;;;;;;5071396;28;20472;-68
2021/09/02 05:50:50;;;;;;;9.67;8.67;;;17.00;99.90;;;;;;5071499;28;20541;-68
2021/09/02 05:53:17;;;;;;;9.97;9.07;;;17.00;99.90;;;;;;5071513;28;20592;-69
2021/09/02 05:55:44;;;;;;;9.47;8.47;;;17.00;99.90;;;;;;5071909;28;20462;-68
2021/09/02 05:58:10;;;;;;;11.37;9.10;;;17.10;99.90;;;;;;5071283;28;20462;-68
2021/09/02 06:00:39;;;;;;;9.53;8.53;;;17.10;99.90;;;;;;5071687;28;20464;-68
2021/09/02 06:03:05;;;;;;;9.67;8.77;;;17.10;99.90;;;;;;5074857;28;20470;-67
2021/09/02 06:05:33;;;;;;;10.87;9.80;;;17.20;99.90;;;;;;5075421;28;20469;-67
2021/09/02 06:08:00;;;;;;;11.13;10.13;;;17.20;99.90;;;;;;5074463;28;20466;-67
2021/09/02 06:10:27;;;;;;;11.20;10.20;;;17.20;99.90;;;;;;5075114;28;20462;-68
2021/09/02 06:12:56;;;;;;;13.63;12.37;;;17.20;99.90;;;;;;5075395;28;20462;-68
2021/09/02 06:15:23;;;;;;;14.57;12.23;;;17.30;99.90;;;;;;5074630;28;20512;-67
2021/09/02 06:17:51;;;;;;;13.40;11.37;;;17.30;99.90;;;;;;5075327;28;20472;-67
2021/09/02 06:20:18;;;;;;;12.43;11.23;;;17.40;99.90;;;;;;5074838;28;20803;-67
2021/09/02 06:22:45;;;;;;;12.03;10.20;;;17.40;99.90;;;;;;5074789;28;20459;-67
2021/09/02 06:25:12;;;;;;;11.20;10.20;;;17.40;99.90;;;;;;5074418;28;20579;-67
2021/09/02 06:27:39;;;;;;;14.03;12.73;;;17.50;99.90;;;;;;5075303;28;20464;-67
2021/09/02 06:30:07;;;;;;;13.30;11.83;;;17.60;99.90;;;;;;5074451;28;20466;-67
2021/09/02 06:32:34;;;;;;;16.10;13.87;;;17.60;99.90;;;;;;5074825;28;20472;-67
2021/09/02 06:35:02;;;;;;;14.77;13.20;;;17.70;99.90;;;;;;5074454;28;20542;-67
2021/09/02 06:37:29;;;;;;;14.97;13.30;;;17.80;99.90;;;;;;5074905;28;20667;-69
2021/09/02 06:39:56;;;;;;;13.30;12.13;;;17.80;99.90;;;;;;5074628;28;20492;-68
2021/09/02 06:42:23;;;;;;;14.43;12.97;;;17.90;99.90;;;;;;5074274;28;20462;-68
2021/09/02 06:44:50;;;;;;;12.50;11.30;;;17.90;99.90;;;;;;5074687;28;20470;-68
2021/09/02 06:47:17;;;;;;;10.00;9.10;;;18.00;99.90;;;;;;5073702;28;20462;-68
2021/09/02 06:49:46;;;;;;;10.90;9.30;;;18.00;99.90;;;;;;5074449;28;20458;-68
2021/09/02 06:52:14;;;;;;;9.43;8.50;;;18.10;99.90;;;;;;5073989;28;20473;-68
2021/09/02 06:54:41;;;;;;;9.70;8.70;;;18.20;99.90;;;;;;5074473;28;20775;-67
2021/09/02 06:57:08;;;;;;;9.90;8.90;;;18.30;99.90;;;;;;5073834;28;20469;-68
2021/09/02 06:59:35;;;;;;;10.17;8.30;;;18.40;99.90;;;;;;5074105;28;20471;-68
2021/09/02 07:02:01;;;;;;;9.47;8.50;;;18.40;99.90;;;;;;5074458;28;20469;-68
2021/09/02 07:04:28;;;;;;;11.17;10.07;;;18.50;99.90;;;;;;5083499;28;20584;-68
2021/09/02 07:06:55;;;;;;;8.67;7.87;;;18.50;99.90;;;;;;5094334;28;20468;-68
2021/09/02 07:09:23;;;;;;;10.40;9.20;;;18.50;99.90;;;;;;5093711;28;20466;-68
2021/09/02 07:11:50;;;;;;;11.03;9.53;;;18.60;99.90;;;;;;5094158;28;20468;-67
2021/09/02 07:14:18;;;;;;;10.80;9.70;;;18.60;99.90;;;;;;5093650;28;20977;-68
2021/09/02 07:16:45;;;;;;;9.53;8.63;;;18.60;99.90;;;;;;5094080;28;20472;-68
2021/09/02 07:19:11;;;;;;;9.60;8.57;;;18.70;99.90;;;;;;5093550;28;20843;-68
2021/09/02 07:21:38;;;;;;;12.77;10.40;;;18.70;99.90;;;;;;5093739;28;20461;-68
2021/09/02 07:24:06;;;;;;;14.97;10.50;;;18.70;99.90;;;;;;5093559;28;20461;-69
2021/09/02 07:26:34;;;;;;;10.67;9.23;;;18.70;99.90;;;;;;5093671;28;20475;-68
2021/09/02 07:29:01;;;;;;;13.07;10.53;;;18.80;99.90;;;;;;5093801;28;20552;-68
2021/09/02 07:31:28;;;;;;;10.93;10.03;;;18.80;99.90;;;;;;5093413;28;20542;-68
2021/09/02 07:33:54;;;;;;;10.53;9.47;;;18.90;99.90;;;;;;5083666;28;20496;-68
2021/09/02 07:36:21;;;;;;;12.63;11.43;;;18.90;99.90;;;;;;5072937;28;20501;-68
2021/09/02 07:38:48;;;;;;;11.63;9.27;;;18.90;99.90;;;;;;5073373;28;20470;-68
2021/09/02 07:41:16;;;;;;;10.83;9.73;;;19.00;99.90;;;;;;5072750;28;20462;-68
2021/09/02 07:43:44;;;;;;;12.13;10.90;;;19.00;99.90;;;;;;5073381;28;20820;-68
2021/09/02 07:46:11;;;;;;;11.53;10.17;;;19.00;99.90;;;;;;5072787;28;20474;-68
2021/09/02 07:48:40;;;;;;;11.43;10.33;;;19.00;99.90;;;;;;5073027;28;20462;-68
2021/09/02 07:51:07;;;;;;;10.00;9.10;;;19.00;99.90;;;;;;5072801;28;20547;-68
2021/09/02 07:53:33;;;;;;;10.73;9.63;;;19.00;99.90;;;;;;5073331;28;20778;-68
2021/09/02 07:56:00;;;;;;;14.30;10.90;;;19.00;99.90;;;;;;5073184;28;20486;-68
2021/09/02 07:58:27;;;;;;;10.90;9.90;;;19.10;99.90;;;;;;5072611;28;20832;-68
2021/09/02 08:00:55;;;;;;;10.60;9.70;;;19.10;99.90;;;;;;5073060;28;21040;-68
2021/09/02 08:03:22;;;;;;;14.30;10.40;;;19.10;99.90;;;;;;5072483;28;20466;-68
2021/09/02 08:05:49;;;;;;;13.70;10.77;;;19.10;99.90;;;;;;5073217;28;20472;-68
2021/09/02 08:08:17;;;;;;;11.77;10.60;;;19.20;99.90;;;;;;5072468;28;20466;-68
2021/09/02 08:10:45;;;;;;;12.87;10.87;;;19.20;99.90;;;;;;5072936;28;20473;-68
2021/09/02 08:13:15;;;;;;;11.73;10.53;;;19.20;99.90;;;;;;5072529;28;20467;-69
2021/09/02 08:15:42;;;;;;;11.67;10.57;;;19.20;99.90;;;;;;5072971;28;20462;-68
2021/09/02 08:18:11;;;;;;;10.83;9.83;;;19.20;99.90;;;;;;5072280;28;20466;-68
2021/09/02 08:20:38;;;;;;;10.40;8.83;;;19.30;99.90;;;;;;5072606;28;20468;-68
2021/09/02 08:23:05;;;;;;;10.70;9.80;;;19.30;99.90;;;;;;5072864;28;20466;-68
2021/09/02 08:25:32;;;;;;;11.30;10.40;;;19.30;99.90;;;;;;5071849;28;20468;-68
2021/09/02 08:27:59;;;;;;;13.50;12.20;;;19.30;99.90;;;;;;5072646;28;20470;-68
2021/09/02 08:30:28;;;;;;;11.63;10.60;;;19.30;99.90;;;;;;5071870;28;20470;-69
2021/09/02 08:32:56;;;;;;;11.63;10.60;;;19.40;99.90;;;;;;5072559;28;20516;-68
2021/09/02 08:35:26;;;;;;;10.10;9.10;;;19.40;99.90;;;;;;5072357;28;20560;-68
2021/09/02 08:37:55;;;;;;;10.13;9.23;;;19.50;99.90;;;;;;5072638;28;20465;-68
2021/09/02 08:40:25;;;;;;;10.63;9.60;;;19.60;99.90;;;;;;5071790;28;20455;-68
2021/09/02 08:42:54;;;;;;;9.97;9.10;;;19.60;99.90;;;;;;5072826;28;20800;-67
2021/09/02 08:45:21;;;;;;;10.27;8.23;;;19.60;99.90;;;;;;5071773;28;20817;-68
2021/09/02 08:47:50;;;;;;;11.13;10.10;;;19.50;99.90;;;;;;5072492;28;20468;-68
2021/09/02 08:50:19;;;;;;;11.37;10.37;;;19.50;99.90;;;;;;5071908;28;20471;-68
2021/09/02 08:52:48;;;;;;;9.50;8.60;;;19.40;99.90;;;;;;5072387;28;20494;-68
2021/09/02 08:55:15;;;;;;;9.53;8.70;;;19.40;99.90;;;;;;5071959;28;20466;-68
2021/09/02 08:57:44;;;;;;;9.53;7.87;;;19.40;99.90;;;;;;5072450;28;20462;-68
2021/09/02 09:00:11;;;;;;;9.90;8.67;;;19.40;99.90;;;;;;5072080;28;20486;-68
2021/09/02 09:02:41;;;;;;;9.63;8.77;;;19.40;99.90;;;;;;5072008;28;20800;-68
2021/09/02 09:05:11;;;;;;;8.60;7.90;;;19.30;99.90;;;;;;5072451;28;20470;-68
2021/09/02 09:07:39;;;;;;;7.50;6.90;;;19.20;99.90;;;;;;5071752;28;20464;-68
2021/09/02 09:10:12;;;;;;;7.37;6.67;;;19.20;99.90;;;;;;5072211;28;20484;-67
2021/09/02 09:12:40;;;;;;;7.10;6.60;;;19.20;99.90;;;;;;5071579;28;20549;-68
2021/09/02 09:15:09;;;;;;;9.30;8.30;;;19.20;99.90;;;;;;5072113;28;20470;-68
2021/09/02 09:17:36;;;;;;;9.30;8.50;;;19.20;99.90;;;;;;5071859;28;20545;-68
2021/09/02 09:20:07;;;;;;;8.20;7.27;;;19.20;99.90;;;;;;5071918;28;20557;-68
2021/09/02 09:22:34;;;;;;;7.60;6.90;;;19.20;99.90;;;;;;5071534;28;20537;-68
2021/09/02 09:25:03;;;;;;;7.90;7.10;;;19.20;99.90;;;;;;5072234;28;20474;-68
2021/09/02 09:27:38;;;;;;;8.93;8.00;;;19.20;99.90;;;;;;5071479;28;20466;-68
2021/09/02 09:30:12;;;;;;;7.50;6.90;;;19.30;99.90;;;;;;5072284;28;20508;-68
2021/09/02 09:32:41;;;;;;;9.63;8.93;;;19.30;99.90;;;;;;5071673;28;20458;-68
2021/09/02 09:35:09;;;;;;;8.87;8.10;;;19.30;99.90;;;;;;5072732;28;20477;-68
2021/09/02 09:37:36;;;;;;;7.70;7.00;;;19.30;99.90;;;;;;5075458;28;20470;-68
2021/09/02 09:40:15;;;;;;;8.73;7.63;;;19.30;99.90;;;;;;5075823;28;20462;-67
2021/09/02 09:42:56;;;;;;;9.60;8.70;;;19.40;99.90;;;;;;5075585;28;20480;-68
2021/09/02 09:45:47;;;;;;;7.70;7.00;;;19.30;99.90;;;;;;5075027;28;20470;-68
2021/09/02 09:48:35;;;;;;;8.13;7.40;;;19.40;99.90;;;;;;5072498;28;20474;-69
2021/09/02 09:51:12;;;;;;;8.47;7.77;;;19.40;99.90;;;;;;5075537;28;20464;-69
2021/09/02 09:53:40;;;;;;;7.80;7.10;;;19.40;99.90;;;;;;5075579;28;20493;-69
2021/09/02 09:56:07;;;;;;;8.23;7.43;;;19.40;99.90;;;;;;5075042;28;20844;-69
2021/09/02 09:58:36;;;;;;;8.63;7.80;;;19.50;99.90;;;;;;5075564;28;20470;-67
2021/09/02 10:01:05;;;;;;;8.40;7.53;;;19.70;99.90;;;;;;5074845;28;21007;-67
2021/09/02 10:03:33;;;;;;;7.30;6.70;;;19.80;99.90;;;;;;5075519;28;20458;-67
2021/09/02 10:06:03;;;;;;;8.03;7.20;;;19.90;99.90;;;;;;5074871;28;20473;-67
2021/09/02 10:08:33;;;;;;;8.60;7.77;;;19.90;99.90;;;;;;5074921;28;20470;-67
2021/09/02 10:11:02;;;;;;;8.20;7.40;;;19.90;99.90;;;;;;5074794;28;20534;-67
2021/09/02 10:13:29;;;;;;;8.00;7.27;;;19.90;99.90;;;;;;5075270;28;20462;-68
2021/09/02 10:15:57;;;;;;;8.00;7.30;;;20.00;99.90;;;;;;5075111;28;20480;-68
2021/09/02 10:18:24;;;;;;;9.10;8.30;;;20.00;99.90;;;;;;5074449;28;20466;-67
2021/09/02 10:20:52;;;;;;;8.47;7.70;;;20.00;99.90;;;;;;5095124;28;20828;-67
2021/09/02 10:23:24;;;;;;;9.50;8.57;;;20.10;99.90;;;;;;5094776;28;20461;-67
2021/09/02 10:25:51;;;;;;;8.37;7.60;;;20.10;99.90;;;;;;5095273;28;20468;-68
2021/09/02 10:28:24;;;;;;;9.83;8.90;;;20.10;99.90;;;;;;5094644;28;20469;-67
2021/09/02 10:30:53;;;;;;;8.70;8.00;;;20.10;99.90;;;;;;5094938;28;20464;-67
2021/09/02 10:33:41;;;;;;;10.10;9.00;;;20.10;99.90;;;;;;5089265;28;20470;-67
2021/09/02 10:36:43;;;;;;;9.50;8.60;;;20.10;99.90;;;;;;5074077;28;20467;-67
2021/09/02 10:39:10;;;;;;;8.47;7.63;;;20.10;99.90;;;;;;5074233;28;20458;-68
2021/09/02 10:41:50;;;;;;;11.90;8.80;;;20.10;99.90;;;;;;5074704;28;20465;-67
2021/09/02 10:44:21;;;;;;;10.17;9.27;;;20.10;99.90;;;;;;5074337;28;20473;-68
2021/09/02 10:46:51;;;;;;;9.83;8.93;;;20.20;99.90;;;;;;5073881;28;20467;-67
2021/09/02 10:49:25;;;;;;;9.83;8.43;;;20.20;99.90;;;;;;5073850;28;20529;-67
2021/09/02 10:51:55;;;;;;;10.30;9.23;;;20.30;99.90;;;;;;5074524;28;20472;-67
2021/09/02 10:54:31;;;;;;;10.17;9.27;;;20.30;99.90;;;;;;5074072;28;20466;-68
2021/09/02 10:57:00;;;;;;;11.93;10.70;;;20.40;99.90;;;;;;5074406;28;20536;-67
2021/09/02 10:59:55;;;;;;;12.20;11.00;;;20.40;99.90;;;;;;5073836;28;20473;-67
2021/09/02 11:02:39;;;;;;;10.00;8.97;;;20.50;99.90;;;;;;5073973;28;20458;-67
2021/09/02 11:05:10;;;;;;;9.77;8.77;;;20.60;99.90;;;;;;5073911;28;20474;-67
2021/09/02 11:07:38;;;;;;;9.33;8.43;;;20.70;99.90;;;;;;5074064;28;20525;-67
2021/09/02 11:10:10;;;;;;;9.20;8.30;;;20.70;99.90;;;;;;5073955;28;20467;-67
2021/09/02 11:12:37;;;;;;;10.70;9.60;;;20.70;99.90;;;;;;5074117;28;20480;-69
2021/09/02 11:15:06;;;;;;;9.33;8.43;;;20.70;99.90;;;;;;5073678;28;20470;-68
2021/09/02 11:17:32;;;;;;;9.47;8.67;;;20.70;99.90;;;;;;5074295;28;20462;-69
2021/09/02 11:19:59;;;;;;;10.73;9.23;;;20.70;99.90;;;;;;5073958;28;20497;-68
2021/09/02 11:22:28;;;;;;;9.60;8.70;;;20.70;99.90;;;;;;5073272;28;20461;-68
2021/09/02 11:24:55;;;;;;;11.47;10.30;;;20.70;99.90;;;;;;5073992;28;20986;-68
2021/09/02 11:27:30;;;;;;;12.77;11.47;;;20.70;99.90;;;;;;5073382;28;20488;-69
2021/09/02 11:30:12;;;;;;;11.50;10.23;;;20.80;99.90;;;;;;5073485;28;20472;-69
2021/09/02 11:32:39;;;;;;;7.20;6.50;;;20.80;99.90;;;;;;5073449;28;20465;-69
2021/09/02 11:35:07;;;;;;;6.87;6.30;;;20.90;99.90;;;;;;5073760;28;20542;-68
2021/09/02 11:37:40;;;;;;;8.03;7.23;;;20.90;99.90;;;;;;5072906;28;20469;-68
2021/09/02 11:40:09;;;;;;;7.03;6.40;;;21.00;99.90;;;;;;5073170;28;20497;-69
2021/09/02 11:42:37;;;;;;;6.60;6.00;;;21.10;99.90;;;;;;5072910;28;20466;-68
2021/09/02 11:45:05;;;;;;;6.40;5.90;;;21.10;99.90;;;;;;5073358;28;20474;-69
2021/09/02 11:47:36;;;;;;;7.37;6.67;;;21.10;99.90;;;;;;5071314;28;20481;-69
2021/09/02 11:50:05;;;;;;;8.57;7.67;;;21.10;99.90;;;;;;5073033;28;20472;-69
2021/09/02 11:52:41;;;;;;;10.03;8.53;;;21.10;99.90;;;;;;5064036;28;20471;-68
2021/09/02 11:55:12;;;;;;;9.30;8.30;;;21.10;99.90;;;;;;5069744;28;20552;-68
2021/09/02 11:57:39;;;;;;;9.20;8.30;;;21.10;99.90;;;;;;5070305;28;20454;-68
2021/09/02 12:00:08;;;;;;;10.77;9.13;;;21.20;99.90;;;;;;5070300;28;20483;-68
2021/09/02 12:02:35;;;;;;;15.57;13.90;;;21.30;99.90;;;;;;5066767;28;20482;-68
2021/09/02 12:05:02;;;;;;;31.37;27.97;;;21.30;99.90;;;;;;5055623;28;20501;-68
2021/09/02 12:07:33;;;;;;;48.70;41.50;;;21.30;99.90;;;;;;5052611;28;20470;-68
2021/09/02 12:10:01;;;;;;;47.50;41.37;;;21.40;99.90;;;;;;5060389;28;20477;-68
2021/09/02 12:12:30;;;;;;;66.03;56.67;;;21.50;99.90;;;;;;5065479;28;20480;-68
2021/09/02 12:14:57;;;;;;;57.57;49.77;;;21.50;99.90;;;;;;5072830;28;21250;-68
2021/09/02 12:17:32;;;;;;;51.33;45.47;;;21.50;99.90;;;;;;5072245;28;20517;-68
2021/09/02 12:20:01;;;;;;;38.97;34.97;;;21.50;99.90;;;;;;5074283;28;20469;-68
2021/09/02 12:22:32;;;;;;;37.37;33.50;;;21.60;99.90;;;;;;5067280;28;20470;-68
2021/09/02 12:25:13;;;;;;;15.33;13.73;;;21.60;99.90;;;;;;5061002;28;20983;-68
2021/09/02 12:27:44;;;;;;;29.03;26.20;;;21.60;99.90;;;;;;5054692;28;20458;-68
2021/09/02 12:30:12;;;;;;;20.93;18.80;;;21.60;99.90;;;;;;5072875;28;20470;-68
2021/09/02 12:32:39;;;;;;;25.67;23.03;;;21.60;99.90;;;;;;5065920;28;20460;-68
2021/09/02 12:35:14;;;;;;;16.07;14.47;;;21.60;99.90;;;;;;5072589;28;20472;-67
2021/09/02 12:37:41;;;;;;;24.33;21.73;;;21.60;99.90;;;;;;5070519;28;20476;-67
2021/09/02 12:40:20;;;;;;;14.37;12.87;;;21.50;99.90;;;;;;5071444;28;20482;-67
2021/09/02 12:42:48;;;;;;;39.67;34.60;;;21.60;99.90;;;;;;5060273;28;21102;-67
2021/09/02 12:45:19;;;;;;;44.60;38.00;;;21.60;99.90;;;;;;5067532;28;21046;-68